Flight Track Log - Related Links

Times and Time Zones

All times are in EDT time to prevent confusion due to time zone crossing. See the N1903G flight status page for this flight to view local times or setup timezone preferences in your user account.

Time Position Orientation Groundspeed Altitude Reporting Facility
EDT Latitude Longitude Course Direction KTS MPH feet Rate Location/Type
Tue 11:30:18 AM 35.3978 -97.5919 350° North 151 174 1,800  Level Fort Worth Center
Tue 11:30:54 AM 35.4331 -97.5994 350° North 207 238 3,600 3,099 Climbing Fort Worth Center
Tue 11:31:49 AM 35.4747 -97.6531 314° West 256 295 6,500 3,243 Climbing Fort Worth Center
Tue 11:33:22 AM 35.4869 -97.7908 276° West 306 352 11,600 3,255 Climbing Fort Worth Center
Tue 11:34:22 AM 35.4678 -97.8928 257° West 311 358 14,800 2,300 Climbing Fort Worth Center
Tue 11:35:22 AM 35.4486 -98.0125 259° West 334 384 16,200 1,850 Climbing Fort Worth Center
Tue 11:36:22 AM 35.4250 -98.1397 257° West 366 421 18,500 2,400 Climbing Fort Worth Center
Tue 11:37:22 AM 35.4033 -98.2667 258° West 384 442 21,000 2,250 Climbing Fort Worth Center
Tue 11:38:22 AM 35.3814 -98.3964 258° West 389 448 23,000 1,450 Climbing Fort Worth Center
Tue 11:39:22 AM 35.3678 -98.5489 264° West 400 460 23,900 1,450 Climbing Fort Worth Center
Tue 11:40:22 AM 35.3517 -98.6964 262° West 422 486 25,900 2,000 Climbing Fort Worth Center
Tue 11:41:22 AM 35.3417 -98.8386 265° West 428 493 27,900 2,000 Climbing Fort Worth Center
Tue 11:42:22 AM 35.3275 -98.9783 263° West 423 487 29,900 2,000 Climbing Fort Worth Center
Tue 11:43:22 AM 35.3153 -99.1106 264° West 418 481 31,900 1,550 Climbing Fort Worth Center
Tue 11:44:22 AM 35.3031 -99.2450 264° West 407 468 33,000 993 Climbing Fort Worth Center
Tue 11:45:53 AM 35.2847 -99.4322 263° West 397 457 34,400 902 Climbing Albuquerque Center
Tue 11:46:55 AM 35.2728 -99.5689 264° West 400 460 35,300 774 Climbing Albuquerque Center
Tue 11:47:57 AM 35.2597 -99.7044 263° West 401 461 36,000 341 Climbing Albuquerque Center
Tue 11:48:58 AM 35.2458 -99.8433 263° West 407 468 36,000  Level Albuquerque Center
Tue 11:50:00 AM 35.2281 -100.0208 263° West 431 496 36,000  Level Albuquerque Center
Tue 11:51:02 AM 35.2125 -100.1728 263° West 444 511 36,000  Level Albuquerque Center
Tue 11:52:04 AM 35.1961 -100.3281 263° West 455 524 36,000  Level Albuquerque Center
Tue 11:53:06 AM 35.1792 -100.4836 262° West 459 528 36,000  Level Albuquerque Center
Tue 11:54:08 AM 35.1642 -100.6269 263° West 461 531 36,000  Level Albuquerque Center
Tue 11:55:09 AM 35.1439 -100.8133 262° West 461 531 36,000  Level Albuquerque Center
Tue 11:56:11 AM 35.1275 -100.9664 263° West 457 526 36,000  Level Albuquerque Center
Tue 11:57:13 AM 35.1100 -101.1197 262° West 455 524 36,000  Level Albuquerque Center
Tue 11:58:15 AM 35.0936 -101.2728 263° West 455 524 36,000  Level Albuquerque Center
Tue 11:59:17 AM 35.0769 -101.4397 263° West 455 524 36,000  Level Albuquerque Center
Tue 12:00:18 PM 35.0614 -101.5939 263° West 456 525 36,000  Level Albuquerque Center
Tue 12:01:20 PM 35.0408 -101.7381 260° West 453 521 36,000  Level Albuquerque Center
Tue 12:02:22 PM 35.0233 -101.8942 262° West 458 527 36,000  Level Albuquerque Center
Tue 12:03:24 PM 35.0039 -102.0469 261° West 457 526 36,000  Level Albuquerque Center
Tue 12:04:26 PM 34.9822 -102.2319 262° West 458 527 36,000  Level Albuquerque Center
Tue 12:05:28 PM 34.9636 -102.3858 262° West 459 528 36,000  Level Albuquerque Center
Tue 12:06:29 PM 34.9450 -102.5397 262° West 459 528 36,000  Level Albuquerque Center
Tue 12:07:31 PM 34.9267 -102.6953 262° West 457 526 36,000  Level Albuquerque Center
Tue 12:08:33 PM 34.9058 -102.8500 261° West 458 527 36,000  Level Albuquerque Center
Tue 12:09:35 PM 34.8867 -103.0047 261° West 458 527 36,000  Level Albuquerque Center
Tue 12:10:36 PM 34.8675 -103.1594 261° West 458 527 36,000  Level Albuquerque Center
Tue 12:11:38 PM 34.8469 -103.3153 261° West 461 531 36,000  Level Albuquerque Center
Tue 12:12:40 PM 34.8233 -103.4972 261° West 462 532 36,000  Level Albuquerque Center
Tue 12:13:42 PM 34.8033 -103.6528 261° West 462 532 36,000  Level Albuquerque Center
Tue 12:14:44 PM 34.7822 -103.8100 261° West 463 533 36,000  Level Albuquerque Center
Tue 12:15:45 PM 34.7600 -103.9661 260° West 464 534 36,000  Level Albuquerque Center
Tue 12:16:47 PM 34.7386 -104.1239 261° West 465 535 36,000  Level Albuquerque Center
Tue 12:17:49 PM 34.7164 -104.2817 260° West 467 537 36,000  Level Albuquerque Center
Tue 12:18:51 PM 34.6956 -104.4383 261° West 464 534 36,000  Level Albuquerque Center
Tue 12:19:53 PM 34.6733 -104.5953 260° West 465 535 36,000  Level Albuquerque Center
Tue 12:20:55 PM 34.6517 -104.7536 261° West 468 539 36,000  Level Albuquerque Center
Tue 12:21:56 PM 34.6300 -104.9103 261° West 467 537 36,000  Level Albuquerque Center
Tue 12:22:58 PM 34.6067 -105.0656 260° West 464 534 36,000  Level Albuquerque Center
Tue 12:24:00 PM 34.5808 -105.2472 260° West 464 534 36,000  Level Albuquerque Center
Tue 12:25:02 PM 34.5575 -105.4017 260° West 462 532 36,000  Level Albuquerque Center
Tue 12:26:04 PM 34.5347 -105.5572 260° West 463 533 36,000  Level Albuquerque Center
Tue 12:27:06 PM 34.5106 -105.7125 259° West 463 533 36,000  Level Albuquerque Center
Tue 12:28:08 PM 34.4878 -105.8686 260° West 466 536 36,000  Level Albuquerque Center
Tue 12:29:10 PM 34.4647 -106.0228 260° West 464 534 36,000  Level Albuquerque Center
Tue 12:30:12 PM 34.4394 -106.1775 259° West 464 534 36,000  Level Albuquerque Center
Tue 12:31:14 PM 34.4158 -106.3225 259° West 466 536 36,000  Level Albuquerque Center
Tue 12:32:16 PM 34.3869 -106.5042 259° West 460 529 36,000  Level Albuquerque Center
Tue 12:33:18 PM 34.3639 -106.6578 260° West 460 529 36,000  Level Albuquerque Center
Tue 12:34:20 PM 34.3383 -106.8131 259° West 466 536 36,000  Level Albuquerque Center
Tue 12:35:22 PM 34.3072 -106.9678 256° West 464 534 36,000  Level Albuquerque Center
Tue 12:36:24 PM 34.2703 -107.1375 255° West 466 536 36,000  Level Albuquerque Center
Tue 12:37:26 PM 34.2381 -107.2922 256° West 473 544 36,000  Level Albuquerque Center
Tue 12:38:28 PM 34.2053 -107.4450 255° West 473 544 36,000  Level Albuquerque Center
Tue 12:39:30 PM 34.1722 -107.5969 255° West 471 542 36,000  Level Albuquerque Center
Tue 12:40:32 PM 34.1392 -107.7478 255° West 468 539 36,000  Level Albuquerque Center
Tue 12:41:34 PM 34.1061 -107.8978 255° West 467 537 36,000  Level Albuquerque Center
Tue 12:42:36 PM 34.0664 -108.0786 255° West 467 537 36,000  Level Albuquerque Center
Tue 12:43:38 PM 34.0331 -108.2308 255° West 470 541 36,000  Level Albuquerque Center
Tue 12:44:40 PM 34.0011 -108.3803 256° West 467 537 36,000  Level Albuquerque Center
Tue 12:45:42 PM 33.9642 -108.5478 255° West 471 542 36,000  Level Albuquerque Center
Tue 12:46:44 PM 33.9303 -108.6978 255° West 480 552 36,000  Level Albuquerque Center
Tue 12:47:46 PM 33.8925 -108.8697 255° West 477 549 36,000  Level Albuquerque Center
Tue 12:48:48 PM 33.8581 -109.0172 254° West 477 549 36,000  Level Albuquerque Center
Tue 12:49:50 PM 33.8189 -109.1892 255° West 477 549 36,000  Level Albuquerque Center
Tue 12:50:52 PM 33.7853 -109.3378 255° West 478 550 36,000  Level Albuquerque Center
Tue 12:51:54 PM 33.7472 -109.4847 253° West 475 547 36,000  Level Albuquerque Center
Tue 12:52:56 PM 33.7072 -109.6394 253° West 484 557 36,000  Level Albuquerque Center
Tue 12:53:58 PM 33.6711 -109.8181 256° West 468 539 36,000  Level Albuquerque Center
Tue 12:55:00 PM 33.6347 -109.9692 254° West 470 541 36,000  Level Albuquerque Center
Tue 12:56:02 PM 33.6019 -110.1150 255° West 474 545 36,000  Level Albuquerque Center
Tue 12:57:04 PM 33.5653 -110.2681 254° West 477 549 36,000  Level Albuquerque Center
Tue 12:58:06 PM 33.5286 -110.4186 254° West 472 543 36,000  Level Albuquerque Center
Tue 12:59:08 PM 33.4844 -110.5975 254° West 469 540 36,000  Level Albuquerque Center
Tue 01:00:10 PM 33.4478 -110.7461 254° West 467 537 36,000  Level Albuquerque Center
Tue 01:01:12 PM 33.4117 -110.8956 254° West 466 536 36,000  Level Albuquerque Center
Tue 01:02:14 PM 33.3750 -111.0439 254° West 465 535 36,000  Level Albuquerque Center
Tue 01:03:16 PM 33.3372 -111.1931 253° West 467 537 36,000  Level Albuquerque Center
Tue 01:04:18 PM 33.2992 -111.3428 253° West 469 540 36,000  Level Albuquerque Center
Tue 01:05:20 PM 33.2622 -111.4925 254° West 469 540 36,000  Level Albuquerque Center
Tue 01:06:22 PM 33.2156 -111.6731 253° West 472 543 36,000  Level Albuquerque Center
Tue 01:07:24 PM 33.1772 -111.8236 253° West 472 543 36,000  Level Albuquerque Center
Tue 01:08:26 PM 33.1375 -111.9733 252° West 472 543 36,000  Level Albuquerque Center
Tue 01:09:28 PM 33.0994 -112.1244 253° West 475 547 36,000  Level Albuquerque Center
Tue 01:10:30 PM 33.0561 -112.2908 253° West 474 545 36,000  Level Albuquerque Center
Tue 01:11:32 PM 33.0175 -112.4406 253° West 474 545 36,000  Level Albuquerque Center
Tue 01:12:34 PM 32.9792 -112.5889 253° West 473 544 36,000  Level Albuquerque Center
Tue 01:13:36 PM 32.9547 -112.7408 259° West 473 544 36,000  Level Albuquerque Center
Tue 01:14:38 PM 32.9444 -112.8964 266° West 475 547 36,000  Level Albuquerque Center
Tue 01:15:40 PM 32.9325 -113.0836 266° West 477 549 36,000  Level Albuquerque Center
Tue 01:16:42 PM 32.9222 -113.2403 266° West 479 551 36,000  Level Albuquerque Center
Tue 01:17:44 PM 32.9117 -113.3975 265° West 479 551 36,000  Level Albuquerque Center
Tue 01:18:46 PM 32.8981 -113.5536 264° West 479 551 36,000  Level Albuquerque Center
Tue 01:19:23 PM 32.8817 -113.6583 259° West 481 554 36,000  Level Los Angeles Center
Tue 01:20:25 PM 32.8483 -113.8111 255° West 478 550 36,000  Level Los Angeles Center
Tue 01:21:27 PM 32.7989 -113.9244 243° Southwest 480 552 36,000  Level Los Angeles Center
Tue 01:22:29 PM 32.7606 -114.1411 258° West 481 554 36,000 -532 Level Los Angeles Center
Tue 01:23:31 PM 32.7383 -114.3006 261° West 486 559 34,900 -1,355 Descending Los Angeles Center
Tue 01:24:33 PM 32.7536 -114.4625 276° West 493 567 33,200 -1,645 Descending Los Angeles Center
Tue 01:25:35 PM 32.7739 -114.6222 279° West 488 562 31,500 -1,680 Descending Los Angeles Center
Tue 01:26:38 PM 32.7819 -114.7786 274° West 474 545 29,700 -1,752 Descending Los Angeles Center
Tue 01:27:52 PM 32.7811 -114.9333 270° West 468 539 27,500 -2,294 Descending Los Angeles Center
Tue 01:28:54 PM 32.7800 -115.1383 270° West 432 497 24,500 -2,274 Descending Los Angeles Center
Tue 01:29:56 PM 32.7819 -115.2469 271° West 413 475 22,800 -2,064 Descending Los Angeles Center
Tue 01:30:59 PM 32.7797 -115.4089 269° West 409 471 20,200 -2,304 Descending Los Angeles Center
Tue 01:32:01 PM 32.7794 -115.5389 270° West 396 456 18,000 -2,081 Descending Los Angeles Center
Tue 01:33:03 PM 32.7792 -115.6669 270° West 390 449 15,900 -1,065 Descending Los Angeles Center
Tue 01:34:05 PM 32.7778 -115.8153 269° West 375 432 15,800 -48 Descending Los Angeles Center
Tue 01:35:07 PM 32.7775 -115.9353 270° West 366 421 15,800 -581 Level Los Angeles Center
Tue 01:36:09 PM 32.7764 -116.0458 269° West 339 390 14,600 -1,355 Descending Los Angeles Center
Tue 01:37:11 PM 32.7756 -116.1517 269° West 323 372 13,000 -1,548 Descending Los Angeles Center
Tue 01:38:13 PM 32.7742 -116.2517 269° West 306 352 11,400 -1,548 Descending Los Angeles Center
Tue 01:39:15 PM 32.7731 -116.3506 269° West 298 343 9,800 -768 Descending Los Angeles Center
Tue 01:40:18 PM 32.7706 -116.4517 268° West 299 344 9,800 -432 Level Los Angeles Center
Tue 01:41:20 PM 32.7169 -116.5225 228° Southwest 293 337 8,900 -1,065 Descending Los Angeles Center
Tue 01:42:22 PM 32.6458 -116.6006 223° Southwest 292 336 7,600 -1,306 Descending Los Angeles Center
Tue 01:43:24 PM 32.6181 -116.6883 249° West 288 331 6,200 -774 Descending Los Angeles Center
Tue 01:44:26 PM 32.6119 -116.7750 265° West 277 319 6,000 -97 Descending Los Angeles Center
Tue 01:45:28 PM 32.6108 -116.8678 269° West 279 321 6,000  Level Los Angeles Center
Tue 01:46:30 PM 32.6103 -116.9586 270° West 278 320 6,000  Level Los Angeles Center
Tue 01:47:32 PM 32.6172 -117.0497 275° West 277 319 6,000  Level Los Angeles Center
Tue 01:48:07 PM 32.6333 -117.1167 286° West 281 323 6,000  Level Southern California TRACON
Tue 01:49:07 PM 32.6667 -117.2000 295° West 283 326 6,000  Level Southern California TRACON
Tue 01:49:37 PM 32.6714 -117.2394 278° West 275 316 6,000  Level Los Angeles Center
Tue 01:50:39 PM 32.6839 -117.3131 281° West 231 266 6,000 -97 Level Los Angeles Center
Tue 01:51:41 PM 32.6961 -117.3758 283° West 204 235 5,800 -871 Descending Los Angeles Center
Tue 01:52:43 PM 32.7081 -117.4353 283° West 188 216 4,200 -1,694 Descending Los Angeles Center
Tue 01:53:45 PM 32.7214 -117.4928 285° West 183 211 2,300 -1,065 Descending Los Angeles Center
Tue 01:54:47 PM 32.7778 -117.4814 10° North 171 197 2,000 -145 Descending Los Angeles Center
Tue 01:55:49 PM 32.7861 -117.4306 79° East 170 196 2,000  Level Los Angeles Center
Tue 01:56:51 PM 32.7800 -117.3789 98° East 160 184 2,000  Level Los Angeles Center
Tue 01:57:54 PM 32.7661 -117.3289 108° East 158 182 2,000 -240 Level Los Angeles Center
Tue 01:58:56 PM 32.7544 -117.2794 106° East 157 181 1,500 -629 Descending Los Angeles Center
Tue 01:59:58 PM 32.7442 -117.2356 106° East 144 166 700 -677 Descending Los Angeles Center
Tue 02:01:00 PM 32.7339 -117.1889 105° East 140 161 100 -581 Descending Los Angeles Center

Login

Don't have an account? Register now (free) for customized features, flight alerts, and more!